sensor_id;sensor_type;location;lat;lon;timestamp;P1;durP1;ratioP1;P2;durP2;ratioP2
13933;SDS011;7039;52.168;9.866;2023-07-02T00:01:48;6.93;;;4.83;;
13933;SDS011;7039;52.168;9.866;2023-07-02T00:04:16;7.47;;;4.63;;
13933;SDS011;7039;52.168;9.866;2023-07-02T00:06:44;5.37;;;4.50;;
13933;SDS011;7039;52.168;9.866;2023-07-02T00:09:11;8.63;;;4.50;;
13933;SDS011;7039;52.168;9.866;2023-07-02T00:11:38;5.43;;;4.43;;
13933;SDS011;7039;52.168;9.866;2023-07-02T00:14:05;4.83;;;4.30;;
13933;SDS011;7039;52.168;9.866;2023-07-02T00:16:32;8.80;;;4.20;;
13933;SDS011;7039;52.168;9.866;2023-07-02T00:18:58;6.40;;;3.80;;
13933;SDS011;7039;52.168;9.866;2023-07-02T00:21:26;9.77;;;4.37;;
13933;SDS011;7039;52.168;9.866;2023-07-02T00:23:53;8.33;;;4.47;;
13933;SDS011;7039;52.168;9.866;2023-07-02T00:26:22;9.00;;;4.30;;
13933;SDS011;7039;52.168;9.866;2023-07-02T00:28:48;6.23;;;4.23;;
13933;SDS011;7039;52.168;9.866;2023-07-02T00:31:15;5.93;;;3.97;;
13933;SDS011;7039;52.168;9.866;2023-07-02T00:33:41;6.40;;;4.50;;
13933;SDS011;7039;52.168;9.866;2023-07-02T00:36:08;6.67;;;3.87;;
13933;SDS011;7039;52.168;9.866;2023-07-02T00:38:40;5.00;;;3.83;;
13933;SDS011;7039;52.168;9.866;2023-07-02T00:41:07;6.13;;;3.33;;
13933;SDS011;7039;52.168;9.866;2023-07-02T00:43:33;6.73;;;3.40;;
13933;SDS011;7039;52.168;9.866;2023-07-02T00:46:00;8.53;;;3.83;;
13933;SDS011;7039;52.168;9.866;2023-07-02T00:48:27;5.77;;;4.10;;
13933;SDS011;7039;52.168;9.866;2023-07-02T00:50:54;9.57;;;4.40;;
13933;SDS011;7039;52.168;9.866;2023-07-02T00:53:21;4.03;;;3.63;;
13933;SDS011;7039;52.168;9.866;2023-07-02T00:55:49;7.93;;;4.03;;
13933;SDS011;7039;52.168;9.866;2023-07-02T00:58:16;7.87;;;4.33;;
13933;SDS011;7039;52.168;9.866;2023-07-02T01:00:46;6.33;;;4.00;;
13933;SDS011;7039;52.168;9.866;2023-07-02T01:03:12;8.60;;;4.07;;
13933;SDS011;7039;52.168;9.866;2023-07-02T01:05:39;7.00;;;4.10;;
13933;SDS011;7039;52.168;9.866;2023-07-02T01:08:06;6.43;;;4.00;;
13933;SDS011;7039;52.168;9.866;2023-07-02T01:10:33;7.30;;;3.83;;
13933;SDS011;7039;52.168;9.866;2023-07-02T01:13:05;6.00;;;4.07;;
13933;SDS011;7039;52.168;9.866;2023-07-02T01:15:35;5.17;;;4.13;;
13933;SDS011;7039;52.168;9.866;2023-07-02T01:18:03;6.63;;;3.93;;
13933;SDS011;7039;52.168;9.866;2023-07-02T01:20:32;6.30;;;3.70;;
13933;SDS011;7039;52.168;9.866;2023-07-02T01:23:00;6.60;;;3.50;;
13933;SDS011;7039;52.168;9.866;2023-07-02T01:25:31;6.43;;;3.70;;
13933;SDS011;7039;52.168;9.866;2023-07-02T01:28:01;6.67;;;3.77;;
13933;SDS011;7039;52.168;9.866;2023-07-02T01:30:28;6.20;;;3.83;;
13933;SDS011;7039;52.168;9.866;2023-07-02T01:32:55;7.37;;;4.27;;
13933;SDS011;7039;52.168;9.866;2023-07-02T01:35:21;8.10;;;4.47;;
13933;SDS011;7039;52.168;9.866;2023-07-02T01:37:49;11.00;;;4.10;;
13933;SDS011;7039;52.168;9.866;2023-07-02T01:40:16;4.77;;;3.73;;
13933;SDS011;7039;52.168;9.866;2023-07-02T01:42:42;8.67;;;4.37;;
13933;SDS011;7039;52.168;9.866;2023-07-02T01:45:09;14.10;;;3.87;;
13933;SDS011;7039;52.168;9.866;2023-07-02T01:47:36;8.07;;;4.23;;
13933;SDS011;7039;52.168;9.866;2023-07-02T01:50:03;6.80;;;3.97;;
13933;SDS011;7039;52.168;9.866;2023-07-02T01:52:31;5.30;;;3.60;;
13933;SDS011;7039;52.168;9.866;2023-07-02T01:54:59;8.13;;;4.13;;
13933;SDS011;7039;52.168;9.866;2023-07-02T01:57:26;8.27;;;4.20;;
13933;SDS011;7039;52.168;9.866;2023-07-02T01:59:53;6.80;;;4.23;;
13933;SDS011;7039;52.168;9.866;2023-07-02T02:02:19;12.67;;;4.13;;
13933;SDS011;7039;52.168;9.866;2023-07-02T02:04:46;6.60;;;4.37;;
13933;SDS011;7039;52.168;9.866;2023-07-02T02:07:12;14.43;;;4.93;;
13933;SDS011;7039;52.168;9.866;2023-07-02T02:09:39;5.47;;;4.13;;
13933;SDS011;7039;52.168;9.866;2023-07-02T02:12:07;6.83;;;4.20;;
13933;SDS011;7039;52.168;9.866;2023-07-02T02:14:33;12.50;;;5.37;;
13933;SDS011;7039;52.168;9.866;2023-07-02T02:17:00;10.73;;;5.67;;
13933;SDS011;7039;52.168;9.866;2023-07-02T02:19:26;10.30;;;5.00;;
13933;SDS011;7039;52.168;9.866;2023-07-02T02:21:53;6.53;;;4.30;;
13933;SDS011;7039;52.168;9.866;2023-07-02T02:24:19;11.80;;;5.50;;
13933;SDS011;7039;52.168;9.866;2023-07-02T02:26:45;12.27;;;5.70;;
13933;SDS011;7039;52.168;9.866;2023-07-02T02:29:13;11.20;;;5.97;;
13933;SDS011;7039;52.168;9.866;2023-07-02T02:31:40;10.63;;;5.83;;
13933;SDS011;7039;52.168;9.866;2023-07-02T02:34:06;10.40;;;5.97;;
13933;SDS011;7039;52.168;9.866;2023-07-02T02:36:33;7.27;;;5.63;;
13933;SDS011;7039;52.168;9.866;2023-07-02T02:38:59;9.57;;;6.20;;
13933;SDS011;7039;52.168;9.866;2023-07-02T02:41:25;14.33;;;6.87;;
13933;SDS011;7039;52.168;9.866;2023-07-02T02:43:52;13.40;;;7.07;;
13933;SDS011;7039;52.168;9.866;2023-07-02T02:46:23;12.83;;;6.80;;
13933;SDS011;7039;52.168;9.866;2023-07-02T02:48:49;13.30;;;8.43;;
13933;SDS011;7039;52.168;9.866;2023-07-02T02:51:16;12.23;;;7.53;;
13933;SDS011;7039;52.168;9.866;2023-07-02T02:53:43;12.67;;;7.80;;
13933;SDS011;7039;52.168;9.866;2023-07-02T02:56:09;16.07;;;7.20;;
13933;SDS011;7039;52.168;9.866;2023-07-02T02:58:36;10.60;;;7.77;;
13933;SDS011;7039;52.168;9.866;2023-07-02T03:01:02;14.13;;;8.10;;
13933;SDS011;7039;52.168;9.866;2023-07-02T03:03:36;13.67;;;8.40;;
13933;SDS011;7039;52.168;9.866;2023-07-02T03:06:05;17.17;;;8.83;;
13933;SDS011;7039;52.168;9.866;2023-07-02T03:08:32;9.77;;;8.13;;
13933;SDS011;7039;52.168;9.866;2023-07-02T03:10:58;13.63;;;8.57;;
13933;SDS011;7039;52.168;9.866;2023-07-02T03:13:25;8.87;;;7.67;;
13933;SDS011;7039;52.168;9.866;2023-07-02T03:15:51;13.77;;;7.43;;
13933;SDS011;7039;52.168;9.866;2023-07-02T03:18:18;10.90;;;7.23;;
13933;SDS011;7039;52.168;9.866;2023-07-02T03:20:45;9.40;;;7.47;;
13933;SDS011;7039;52.168;9.866;2023-07-02T03:23:12;14.53;;;8.30;;
13933;SDS011;7039;52.168;9.866;2023-07-02T03:25:39;10.77;;;7.27;;
13933;SDS011;7039;52.168;9.866;2023-07-02T03:28:05;10.83;;;7.90;;
13933;SDS011;7039;52.168;9.866;2023-07-02T03:30:31;9.90;;;7.73;;
13933;SDS011;7039;52.168;9.866;2023-07-02T03:32:58;9.70;;;7.57;;
13933;SDS011;7039;52.168;9.866;2023-07-02T03:35:24;7.20;;;6.50;;
13933;SDS011;7039;52.168;9.866;2023-07-02T03:37:52;12.50;;;7.93;;
13933;SDS011;7039;52.168;9.866;2023-07-02T03:40:18;12.70;;;7.70;;
13933;SDS011;7039;52.168;9.866;2023-07-02T03:42:45;11.43;;;8.80;;
13933;SDS011;7039;52.168;9.866;2023-07-02T03:45:11;12.07;;;8.60;;
13933;SDS011;7039;52.168;9.866;2023-07-02T03:47:38;11.77;;;8.30;;
13933;SDS011;7039;52.168;9.866;2023-07-02T03:50:04;8.47;;;7.63;;
13933;SDS011;7039;52.168;9.866;2023-07-02T03:52:31;11.43;;;9.17;;
13933;SDS011;7039;52.168;9.866;2023-07-02T03:54:59;12.60;;;8.80;;
13933;SDS011;7039;52.168;9.866;2023-07-02T03:57:26;13.43;;;9.73;;
13933;SDS011;7039;52.168;9.866;2023-07-02T03:59:52;13.67;;;9.00;;
13933;SDS011;7039;52.168;9.866;2023-07-02T04:02:19;10.47;;;8.93;;
13933;SDS011;7039;52.168;9.866;2023-07-02T04:04:45;11.30;;;9.27;;
13933;SDS011;7039;52.168;9.866;2023-07-02T04:07:12;12.60;;;10.00;;
13933;SDS011;7039;52.168;9.866;2023-07-02T04:09:38;13.23;;;10.33;;
13933;SDS011;7039;52.168;9.866;2023-07-02T04:12:07;16.97;;;9.43;;
13933;SDS011;7039;52.168;9.866;2023-07-02T04:14:35;16.30;;;10.33;;
13933;SDS011;7039;52.168;9.866;2023-07-02T04:17:01;13.00;;;10.73;;
13933;SDS011;7039;52.168;9.866;2023-07-02T04:19:29;12.93;;;11.47;;
13933;SDS011;7039;52.168;9.866;2023-07-02T04:21:55;13.80;;;12.23;;
13933;SDS011;7039;52.168;9.866;2023-07-02T04:24:22;15.53;;;12.37;;
13933;SDS011;7039;52.168;9.866;2023-07-02T04:26:48;17.50;;;12.10;;
13933;SDS011;7039;52.168;9.866;2023-07-02T04:29:16;16.03;;;13.50;;
13933;SDS011;7039;52.168;9.866;2023-07-02T04:31:42;15.47;;;13.80;;
13933;SDS011;7039;52.168;9.866;2023-07-02T04:34:09;15.50;;;12.70;;
13933;SDS011;7039;52.168;9.866;2023-07-02T04:36:35;16.73;;;14.37;;
13933;SDS011;7039;52.168;9.866;2023-07-02T04:39:02;15.07;;;13.47;;
13933;SDS011;7039;52.168;9.866;2023-07-02T04:41:28;18.17;;;14.20;;
13933;SDS011;7039;52.168;9.866;2023-07-02T04:43:55;17.90;;;13.80;;
13933;SDS011;7039;52.168;9.866;2023-07-02T04:46:23;18.67;;;14.53;;
13933;SDS011;7039;52.168;9.866;2023-07-02T04:48:50;17.90;;;14.77;;
13933;SDS011;7039;52.168;9.866;2023-07-02T04:51:16;20.43;;;15.50;;
13933;SDS011;7039;52.168;9.866;2023-07-02T04:53:42;18.13;;;16.23;;
13933;SDS011;7039;52.168;9.866;2023-07-02T04:56:09;23.10;;;17.40;;
13933;SDS011;7039;52.168;9.866;2023-07-02T04:58:35;26.83;;;20.13;;
13933;SDS011;7039;52.168;9.866;2023-07-02T05:01:02;24.67;;;13.70;;
13933;SDS011;7039;52.168;9.866;2023-07-02T05:03:30;25.93;;;9.93;;
13933;SDS011;7039;52.168;9.866;2023-07-02T05:05:56;15.40;;;8.10;;
13933;SDS011;7039;52.168;9.866;2023-07-02T05:08:22;15.33;;;7.53;;
13933;SDS011;7039;52.168;9.866;2023-07-02T05:10:49;20.63;;;9.27;;
13933;SDS011;7039;52.168;9.866;2023-07-02T05:13:15;19.40;;;8.80;;
13933;SDS011;7039;52.168;9.866;2023-07-02T05:15:42;19.43;;;8.60;;
13933;SDS011;7039;52.168;9.866;2023-07-02T05:18:08;17.60;;;7.73;;
13933;SDS011;7039;52.168;9.866;2023-07-02T05:20:36;23.93;;;9.03;;
13933;SDS011;7039;52.168;9.866;2023-07-02T05:23:03;24.30;;;8.43;;
13933;SDS011;7039;52.168;9.866;2023-07-02T05:25:29;21.20;;;8.53;;
13933;SDS011;7039;52.168;9.866;2023-07-02T05:27:57;20.37;;;9.67;;
13933;SDS011;7039;52.168;9.866;2023-07-02T05:30:24;20.80;;;8.60;;
13933;SDS011;7039;52.168;9.866;2023-07-02T05:32:50;29.47;;;8.63;;
13933;SDS011;7039;52.168;9.866;2023-07-02T05:35:17;17.80;;;8.37;;
13933;SDS011;7039;52.168;9.866;2023-07-02T05:37:44;20.00;;;8.37;;
13933;SDS011;7039;52.168;9.866;2023-07-02T05:40:11;19.83;;;9.00;;
13933;SDS011;7039;52.168;9.866;2023-07-02T05:42:38;21.23;;;8.77;;
13933;SDS011;7039;52.168;9.866;2023-07-02T05:45:04;17.40;;;7.57;;
13933;SDS011;7039;52.168;9.866;2023-07-02T05:47:31;27.03;;;7.77;;
13933;SDS011;7039;52.168;9.866;2023-07-02T05:49:57;17.87;;;8.13;;
13933;SDS011;7039;52.168;9.866;2023-07-02T05:52:24;13.57;;;8.00;;
13933;SDS011;7039;52.168;9.866;2023-07-02T05:54:52;14.50;;;8.53;;
13933;SDS011;7039;52.168;9.866;2023-07-02T05:57:18;16.83;;;8.53;;
13933;SDS011;7039;52.168;9.866;2023-07-02T05:59:45;20.37;;;8.70;;
13933;SDS011;7039;52.168;9.866;2023-07-02T06:02:11;20.70;;;9.07;;
13933;SDS011;7039;52.168;9.866;2023-07-02T06:04:37;15.23;;;7.23;;
13933;SDS011;7039;52.168;9.866;2023-07-02T06:07:04;14.40;;;7.27;;
13933;SDS011;7039;52.168;9.866;2023-07-02T06:09:30;14.43;;;8.03;;
13933;SDS011;7039;52.168;9.866;2023-07-02T06:11:58;27.27;;;8.70;;
13933;SDS011;7039;52.168;9.866;2023-07-02T06:14:25;17.07;;;7.70;;
13933;SDS011;7039;52.168;9.866;2023-07-02T06:16:52;16.57;;;7.07;;
13933;SDS011;7039;52.168;9.866;2023-07-02T06:19:20;19.43;;;8.30;;
13933;SDS011;7039;52.168;9.866;2023-07-02T06:21:47;20.33;;;6.93;;
13933;SDS011;7039;52.168;9.866;2023-07-02T06:24:13;20.40;;;7.17;;
13933;SDS011;7039;52.168;9.866;2023-07-02T06:26:39;21.53;;;7.67;;
13933;SDS011;7039;52.168;9.866;2023-07-02T06:29:07;14.70;;;7.70;;
13933;SDS011;7039;52.168;9.866;2023-07-02T06:31:34;20.17;;;7.77;;
13933;SDS011;7039;52.168;9.866;2023-07-02T06:34:00;14.47;;;7.80;;
13933;SDS011;7039;52.168;9.866;2023-07-02T06:36:26;18.07;;;8.10;;
13933;SDS011;7039;52.168;9.866;2023-07-02T06:38:53;14.27;;;7.20;;
13933;SDS011;7039;52.168;9.866;2023-07-02T06:41:20;14.60;;;6.97;;
13933;SDS011;7039;52.168;9.866;2023-07-02T06:43:46;20.33;;;8.03;;
13933;SDS011;7039;52.168;9.866;2023-07-02T06:46:14;14.03;;;7.33;;
13933;SDS011;7039;52.168;9.866;2023-07-02T06:48:40;11.77;;;6.70;;
13933;SDS011;7039;52.168;9.866;2023-07-02T06:51:07;15.57;;;7.17;;
13933;SDS011;7039;52.168;9.866;2023-07-02T06:53:33;19.13;;;6.73;;
13933;SDS011;7039;52.168;9.866;2023-07-02T06:56:00;11.17;;;6.60;;
13933;SDS011;7039;52.168;9.866;2023-07-02T06:58:26;14.87;;;6.57;;
13933;SDS011;7039;52.168;9.866;2023-07-02T07:00:53;16.50;;;6.50;;
13933;SDS011;7039;52.168;9.866;2023-07-02T07:03:20;10.87;;;6.37;;
13933;SDS011;7039;52.168;9.866;2023-07-02T07:05:47;18.93;;;6.43;;
13933;SDS011;7039;52.168;9.866;2023-07-02T07:08:13;13.60;;;6.07;;
13933;SDS011;7039;52.168;9.866;2023-07-02T07:10:40;14.80;;;6.40;;
13933;SDS011;7039;52.168;9.866;2023-07-02T07:13:06;14.87;;;6.57;;
13933;SDS011;7039;52.168;9.866;2023-07-02T07:15:33;16.27;;;6.70;;
13933;SDS011;7039;52.168;9.866;2023-07-02T07:18:00;19.47;;;7.13;;
13933;SDS011;7039;52.168;9.866;2023-07-02T07:20:28;14.63;;;6.73;;
13933;SDS011;7039;52.168;9.866;2023-07-02T07:22:55;17.97;;;6.73;;
13933;SDS011;7039;52.168;9.866;2023-07-02T07:25:21;18.17;;;7.07;;
13933;SDS011;7039;52.168;9.866;2023-07-02T07:32:59;11.60;;;5.87;;
13933;SDS011;7039;52.168;9.866;2023-07-02T08:18:23;21.03;;;7.23;;
13933;SDS011;7039;52.168;9.866;2023-07-02T08:50:01;17.03;;;6.43;;
13933;SDS011;7039;52.168;9.866;2023-07-02T09:59:52;23.17;;;6.90;;
13933;SDS011;7039;52.168;9.866;2023-07-02T13:34:43;11.65;;;6.07;;
13933;SDS011;7039;52.168;9.866;2023-07-02T13:37:11;10.50;;;5.60;;
13933;SDS011;7039;52.168;9.866;2023-07-02T14:15:06;12.15;;;5.25;;
13933;SDS011;7039;52.168;9.866;2023-07-02T15:14:49;10.32;;;4.82;;
13933;SDS011;7039;52.168;9.866;2023-07-02T15:17:34;13.68;;;4.75;;
13933;SDS011;7039;52.168;9.866;2023-07-02T15:29:36;8.63;;;5.03;;
13933;SDS011;7039;52.168;9.866;2023-07-02T15:38:22;7.53;;;4.05;;
13933;SDS011;7039;52.168;9.866;2023-07-02T15:41:03;9.55;;;4.60;;
13933;SDS011;7039;52.168;9.866;2023-07-02T16:05:46;10.93;;;4.53;;
13933;SDS011;7039;52.168;9.866;2023-07-02T16:13:27;11.27;;;4.65;;
13933;SDS011;7039;52.168;9.866;2023-07-02T16:29:10;9.18;;;4.60;;
13933;SDS011;7039;52.168;9.866;2023-07-02T16:44:56;13.23;;;5.38;;
13933;SDS011;7039;52.168;9.866;2023-07-02T17:08:20;11.47;;;5.07;;
13933;SDS011;7039;52.168;9.866;2023-07-02T17:13:28;10.32;;;5.28;;
13933;SDS011;7039;52.168;9.866;2023-07-02T17:15:56;10.07;;;5.20;;
13933;SDS011;7039;52.168;9.866;2023-07-02T17:22:17;10.95;;;4.53;;
13933;SDS011;7039;52.168;9.866;2023-07-02T17:31:38;9.43;;;4.50;;
13933;SDS011;7039;52.168;9.866;2023-07-02T17:39:54;10.60;;;5.05;;
13933;SDS011;7039;52.168;9.866;2023-07-02T17:42:48;9.77;;;5.25;;
13933;SDS011;7039;52.168;9.866;2023-07-02T17:51:09;9.95;;;4.70;;
13933;SDS011;7039;52.168;9.866;2023-07-02T17:53:36;8.90;;;4.40;;
13933;SDS011;7039;52.168;9.866;2023-07-02T19:29:17;6.83;;;3.53;;
13933;SDS011;7039;52.168;9.866;2023-07-02T19:31:43;8.20;;;3.73;;
13933;SDS011;7039;52.168;9.866;2023-07-02T19:34:10;7.30;;;4.00;;
13933;SDS011;7039;52.168;9.866;2023-07-02T19:36:37;9.73;;;3.80;;
13933;SDS011;7039;52.168;9.866;2023-07-02T19:39:04;11.00;;;3.80;;
13933;SDS011;7039;52.168;9.866;2023-07-02T19:41:30;11.10;;;3.60;;
13933;SDS011;7039;52.168;9.866;2023-07-02T19:43:56;9.67;;;4.00;;
13933;SDS011;7039;52.168;9.866;2023-07-02T19:46:24;8.87;;;3.90;;
13933;SDS011;7039;52.168;9.866;2023-07-02T19:48:51;7.00;;;3.50;;
13933;SDS011;7039;52.168;9.866;2023-07-02T19:51:17;8.67;;;3.60;;
13933;SDS011;7039;52.168;9.866;2023-07-02T19:53:44;8.63;;;3.80;;
13933;SDS011;7039;52.168;9.866;2023-07-02T19:56:10;11.67;;;3.73;;
13933;SDS011;7039;52.168;9.866;2023-07-02T19:58:37;6.33;;;3.40;;
13933;SDS011;7039;52.168;9.866;2023-07-02T20:01:07;8.90;;;3.70;;
13933;SDS011;7039;52.168;9.866;2023-07-02T20:03:36;9.90;;;4.03;;
13933;SDS011;7039;52.168;9.866;2023-07-02T20:06:02;9.20;;;3.63;;
13933;SDS011;7039;52.168;9.866;2023-07-02T20:08:29;9.20;;;3.57;;
13933;SDS011;7039;52.168;9.866;2023-07-02T20:10:56;9.03;;;4.00;;
13933;SDS011;7039;52.168;9.866;2023-07-02T20:13:23;8.83;;;3.70;;
13933;SDS011;7039;52.168;9.866;2023-07-02T20:15:49;8.27;;;3.73;;
13933;SDS011;7039;52.168;9.866;2023-07-02T20:18:16;7.93;;;3.40;;
13933;SDS011;7039;52.168;9.866;2023-07-02T20:20:44;6.77;;;3.30;;
13933;SDS011;7039;52.168;9.866;2023-07-02T20:23:11;10.50;;;3.70;;
13933;SDS011;7039;52.168;9.866;2023-07-02T20:25:37;10.20;;;3.30;;
13933;SDS011;7039;52.168;9.866;2023-07-02T20:28:04;8.97;;;3.83;;
13933;SDS011;7039;52.168;9.866;2023-07-02T20:30:30;11.00;;;3.70;;
13933;SDS011;7039;52.168;9.866;2023-07-02T20:32:57;6.67;;;3.70;;
13933;SDS011;7039;52.168;9.866;2023-07-02T20:35:23;9.20;;;2.93;;
13933;SDS011;7039;52.168;9.866;2023-07-02T20:37:51;7.47;;;3.50;;
13933;SDS011;7039;52.168;9.866;2023-07-02T20:40:20;8.97;;;3.77;;
13933;SDS011;7039;52.168;9.866;2023-07-02T20:42:47;6.87;;;3.43;;
13933;SDS011;7039;52.168;9.866;2023-07-02T20:45:17;7.97;;;3.40;;
13933;SDS011;7039;52.168;9.866;2023-07-02T20:47:46;6.50;;;3.63;;
13933;SDS011;7039;52.168;9.866;2023-07-02T20:50:13;10.13;;;3.90;;
13933;SDS011;7039;52.168;9.866;2023-07-02T20:52:41;7.63;;;3.60;;
13933;SDS011;7039;52.168;9.866;2023-07-02T20:55:10;6.17;;;3.43;;
13933;SDS011;7039;52.168;9.866;2023-07-02T20:57:36;7.87;;;3.33;;
13933;SDS011;7039;52.168;9.866;2023-07-02T21:00:03;12.30;;;3.70;;
13933;SDS011;7039;52.168;9.866;2023-07-02T21:02:34;10.50;;;4.03;;
13933;SDS011;7039;52.168;9.866;2023-07-02T21:05:00;10.53;;;4.23;;
13933;SDS011;7039;52.168;9.866;2023-07-02T21:07:27;7.73;;;3.97;;
13933;SDS011;7039;52.168;9.866;2023-07-02T21:09:54;15.87;;;3.93;;
13933;SDS011;7039;52.168;9.866;2023-07-02T21:12:21;8.90;;;3.93;;
13933;SDS011;7039;52.168;9.866;2023-07-02T21:14:49;7.93;;;3.30;;
13933;SDS011;7039;52.168;9.866;2023-07-02T21:17:15;10.67;;;4.07;;
13933;SDS011;7039;52.168;9.866;2023-07-02T21:19:42;9.73;;;3.70;;
13933;SDS011;7039;52.168;9.866;2023-07-02T21:22:08;10.40;;;3.67;;
13933;SDS011;7039;52.168;9.866;2023-07-02T21:24:35;10.20;;;3.80;;
13933;SDS011;7039;52.168;9.866;2023-07-02T21:27:01;12.70;;;3.60;;
13933;SDS011;7039;52.168;9.866;2023-07-02T21:29:29;10.07;;;3.80;;
13933;SDS011;7039;52.168;9.866;2023-07-02T21:31:56;10.53;;;4.23;;
13933;SDS011;7039;52.168;9.866;2023-07-02T21:34:22;8.27;;;3.90;;
13933;SDS011;7039;52.168;9.866;2023-07-02T21:36:49;13.47;;;3.77;;
13933;SDS011;7039;52.168;9.866;2023-07-02T21:39:16;7.90;;;3.93;;
13933;SDS011;7039;52.168;9.866;2023-07-02T21:41:43;5.73;;;3.20;;
13933;SDS011;7039;52.168;9.866;2023-07-02T21:44:09;8.20;;;3.57;;
13933;SDS011;7039;52.168;9.866;2023-07-02T21:46:37;6.63;;;3.37;;
13933;SDS011;7039;52.168;9.866;2023-07-02T21:49:04;7.57;;;3.53;;
13933;SDS011;7039;52.168;9.866;2023-07-02T21:51:30;9.00;;;4.10;;
13933;SDS011;7039;52.168;9.866;2023-07-02T21:53:57;7.80;;;3.40;;
13933;SDS011;7039;52.168;9.866;2023-07-02T21:56:23;9.77;;;3.97;;
13933;SDS011;7039;52.168;9.866;2023-07-02T21:58:51;8.60;;;4.17;;
13933;SDS011;7039;52.168;9.866;2023-07-02T22:01:17;8.40;;;3.70;;
13933;SDS011;7039;52.168;9.866;2023-07-02T22:03:45;6.90;;;3.67;;
13933;SDS011;7039;52.168;9.866;2023-07-02T22:06:12;10.90;;;3.80;;
13933;SDS011;7039;52.168;9.866;2023-07-02T22:08:38;9.50;;;3.83;;
13933;SDS011;7039;52.168;9.866;2023-07-02T22:11:10;9.90;;;3.70;;
13933;SDS011;7039;52.168;9.866;2023-07-02T22:13:37;7.20;;;3.37;;
13933;SDS011;7039;52.168;9.866;2023-07-02T22:16:04;13.13;;;4.00;;
13933;SDS011;7039;52.168;9.866;2023-07-02T22:18:31;8.40;;;4.07;;
13933;SDS011;7039;52.168;9.866;2023-07-02T22:21:03;7.73;;;4.07;;
13933;SDS011;7039;52.168;9.866;2023-07-02T22:23:31;9.23;;;3.87;;
13933;SDS011;7039;52.168;9.866;2023-07-02T22:25:58;11.23;;;4.03;;
13933;SDS011;7039;52.168;9.866;2023-07-02T22:28:24;6.87;;;3.70;;
13933;SDS011;7039;52.168;9.866;2023-07-02T22:30:51;10.40;;;5.03;;
13933;SDS011;7039;52.168;9.866;2023-07-02T22:33:17;10.63;;;4.07;;
13933;SDS011;7039;52.168;9.866;2023-07-02T22:35:45;7.70;;;3.57;;
13933;SDS011;7039;52.168;9.866;2023-07-02T22:38:12;7.23;;;3.83;;
13933;SDS011;7039;52.168;9.866;2023-07-02T22:40:39;10.03;;;4.43;;
13933;SDS011;7039;52.168;9.866;2023-07-02T22:43:05;9.43;;;3.47;;
13933;SDS011;7039;52.168;9.866;2023-07-02T22:45:32;8.63;;;4.33;;
13933;SDS011;7039;52.168;9.866;2023-07-02T22:47:59;11.77;;;3.80;;
13933;SDS011;7039;52.168;9.866;2023-07-02T22:50:25;9.57;;;3.27;;
13933;SDS011;7039;52.168;9.866;2023-07-02T22:52:52;7.73;;;3.50;;
13933;SDS011;7039;52.168;9.866;2023-07-02T22:55:20;5.57;;;3.50;;
13933;SDS011;7039;52.168;9.866;2023-07-02T22:57:47;9.10;;;3.80;;
13933;SDS011;7039;52.168;9.866;2023-07-02T23:00:14;8.60;;;3.73;;
13933;SDS011;7039;52.168;9.866;2023-07-02T23:02:44;9.27;;;4.00;;
13933;SDS011;7039;52.168;9.866;2023-07-02T23:05:13;6.27;;;3.27;;
13933;SDS011;7039;52.168;9.866;2023-07-02T23:07:41;6.07;;;3.60;;
13933;SDS011;7039;52.168;9.866;2023-07-02T23:10:09;6.47;;;3.30;;
13933;SDS011;7039;52.168;9.866;2023-07-02T23:12:40;7.27;;;4.07;;
13933;SDS011;7039;52.168;9.866;2023-07-02T23:15:07;9.43;;;4.07;;
13933;SDS011;7039;52.168;9.866;2023-07-02T23:17:38;8.50;;;3.83;;
13933;SDS011;7039;52.168;9.866;2023-07-02T23:20:06;10.87;;;4.00;;
13933;SDS011;7039;52.168;9.866;2023-07-02T23:22:34;10.73;;;3.90;;
13933;SDS011;7039;52.168;9.866;2023-07-02T23:25:05;8.80;;;3.87;;
13933;SDS011;7039;52.168;9.866;2023-07-02T23:27:33;11.07;;;4.63;;
13933;SDS011;7039;52.168;9.866;2023-07-02T23:30:06;10.67;;;3.70;;
13933;SDS011;7039;52.168;9.866;2023-07-02T23:32:34;10.00;;;3.70;;
13933;SDS011;7039;52.168;9.866;2023-07-02T23:35:00;8.67;;;4.17;;
13933;SDS011;7039;52.168;9.866;2023-07-02T23:37:27;8.63;;;3.90;;
13933;SDS011;7039;52.168;9.866;2023-07-02T23:39:53;7.90;;;3.50;;
13933;SDS011;7039;52.168;9.866;2023-07-02T23:42:20;8.60;;;3.50;;
13933;SDS011;7039;52.168;9.866;2023-07-02T23:44:46;9.43;;;3.97;;
13933;SDS011;7039;52.168;9.866;2023-07-02T23:47:14;10.13;;;3.93;;
13933;SDS011;7039;52.168;9.866;2023-07-02T23:49:40;9.57;;;4.13;;
13933;SDS011;7039;52.168;9.866;2023-07-02T23:52:07;7.83;;;3.87;;
13933;SDS011;7039;52.168;9.866;2023-07-02T23:54:34;8.63;;;3.73;;
13933;SDS011;7039;52.168;9.866;2023-07-02T23:57:00;10.53;;;4.50;;
13933;SDS011;7039;52.168;9.866;2023-07-02T23:59:27;11.17;;;3.87;;
